Time;durP1;ratioP1;P1;durP2;ratioP2;P2;SDS_P1;SDS_P2;PMS_P1;PMS_P2;Temp;Humidity;BMP_temperature;BMP_pressure;BME280_temperature;BME280_humidity;BME280_pressure;Samples;Min_cycle;Max_cycle;Signal;HPM_P1;HPM_P2
2021/04/02 00:02:14;;;;;;;;;;;27.70;92.30;;;;;;5105680;28;19908;-44
2021/04/02 00:04:40;;;;;;;;;;;27.70;92.30;;;;;;5105661;28;19907;-40
2021/04/02 00:07:07;;;;;;;;;;;27.70;92.20;;;;;;5105300;28;19914;-39
2021/04/02 00:09:34;;;;;;;;;;;27.70;92.10;;;;;;5105597;28;19911;-40
2021/04/02 00:12:00;;;;;;;;;;;27.70;91.70;;;;;;5105428;28;19959;-40
2021/04/02 00:14:26;;;;;;;;;;;27.70;91.70;;;;;;5105365;28;19900;-47
2021/04/02 00:16:53;;;;;;;;;;;27.70;91.60;;;;;;5105381;28;19928;-47
2021/04/02 00:19:19;;;;;;;;;;;27.70;91.30;;;;;;5105318;28;19927;-41
2021/04/02 00:21:45;;;;;;;;;;;27.70;91.30;;;;;;5105422;28;20202;-41
2021/04/02 00:24:11;;;;;;;;;;;27.70;90.80;;;;;;5105106;28;20096;-47
2021/04/02 00:26:37;;;;;;;;;;;27.70;90.70;;;;;;5087259;28;19942;-48
2021/04/02 00:29:04;;;;;;;;;;;27.60;90.50;;;;;;5086681;28;19904;-43
2021/04/02 00:31:30;;;;;;;;;;;27.60;90.40;;;;;;5104774;28;19907;-45
2021/04/02 00:33:56;;;;;;;;;;;27.60;90.50;;;;;;5104993;28;19904;-47
2021/04/02 00:36:23;;;;;;;;;;;27.50;90.30;;;;;;5104959;28;19941;-44
2021/04/02 00:38:49;;;;;;;;;;;27.50;90.70;;;;;;5105178;28;19915;-44
2021/04/02 00:41:16;;;;;;;;;;;27.40;90.30;;;;;;5104755;28;19908;-51
2021/04/02 00:43:45;;;;;;;;;;;27.40;90.30;;;;;;5105472;28;19975;-50
2021/04/02 00:46:11;;;;;;;;;;;27.40;90.30;;;;;;5104182;28;19945;-50
2021/04/02 00:48:39;;;;;;;;;;;27.40;90.40;;;;;;5086387;28;19908;-42
2021/04/02 00:51:06;;;;;;;;;;;27.40;90.40;;;;;;5104296;28;19912;-46
2021/04/02 00:53:34;;;;;;;;;;;27.40;90.30;;;;;;5086299;28;19915;-55
2021/04/02 00:56:01;;;;;;;;;;;27.30;90.40;;;;;;5104227;28;20089;-50
2021/04/02 00:58:29;;;;;;;;;;;27.30;90.40;;;;;;5104456;28;19912;-46
2021/04/02 01:00:55;;;;;;;;;;;27.30;90.30;;;;;;5104496;28;19914;-43
2021/04/02 01:03:22;;;;;;;;;;;27.30;90.30;;;;;;5086935;28;19957;-41
2021/04/02 01:05:49;;;;;;;;;;;27.30;90.30;;;;;;5104535;28;20077;-41
2021/04/02 01:08:23;;;;;;;;;;;27.30;90.20;;;;;;5086367;28;20234;-41
2021/04/02 01:10:51;;;;;;;;;;;27.20;90.30;;;;;;5104225;28;19947;-40
2021/04/02 01:13:20;;;;;;;;;;;27.20;90.30;;;;;;5086696;28;19915;-41
2021/04/02 01:15:50;;;;;;;;;;;27.20;90.20;;;;;;5104290;28;20129;-43
2021/04/02 01:18:35;;;;;;;;;;;27.20;90.30;;;;;;5086703;28;19919;-52
2021/04/02 01:21:05;;;;;;;;;;;27.20;90.40;;;;;;5104344;28;19962;-40
2021/04/02 01:23:43;;;;;;;;;;;27.10;90.40;;;;;;5104822;28;19984;-49
2021/04/02 01:26:23;;;;;;;;;;;27.10;90.70;;;;;;5104264;28;19907;-45
2021/04/02 01:29:08;;;;;;;;;;;27.10;90.30;;;;;;5104549;28;19935;-43
2021/04/02 01:31:36;;;;;;;;;;;27.10;90.10;;;;;;5104602;28;20086;-44
2021/04/02 01:34:03;;;;;;;;;;;27.10;90.00;;;;;;5104227;28;19916;-50
2021/04/02 01:36:30;;;;;;;;;;;27.10;89.90;;;;;;5103957;28;19946;-46
2021/04/02 01:38:59;;;;;;;;;;;27.10;89.30;;;;;;5104037;28;19904;-42
2021/04/02 01:41:26;;;;;;;;;;;27.10;89.30;;;;;;5104216;28;19900;-49
2021/04/02 01:43:54;;;;;;;;;;;27.10;88.90;;;;;;5104554;28;20140;-44
2021/04/02 01:46:21;;;;;;;;;;;27.00;89.10;;;;;;5104033;28;19904;-52
2021/04/02 01:48:51;;;;;;;;;;;27.00;88.90;;;;;;5104647;28;19904;-49
2021/04/02 01:51:18;;;;;;;;;;;27.00;88.80;;;;;;5104216;28;19941;-44
2021/04/02 01:53:46;;;;;;;;;;;27.00;89.00;;;;;;5104155;28;20152;-42
2021/04/02 01:56:12;;;;;;;;;;;26.90;88.80;;;;;;5103984;28;19904;-47
2021/04/02 01:58:40;;;;;;;;;;;26.90;87.90;;;;;;5103997;28;19911;-56
2021/04/02 02:01:07;;;;;;;;;;;26.90;87.60;;;;;;5105396;28;19936;-42
2021/04/02 02:03:35;;;;;;;;;;;26.90;86.90;;;;;;5108274;28;19908;-44
2021/04/02 02:06:02;;;;;;;;;;;26.90;86.10;;;;;;5107584;28;19912;-41
2021/04/02 02:08:29;;;;;;;;;;;26.90;85.80;;;;;;5107956;28;20118;-41
2021/04/02 02:11:15;;;;;;;;;;;26.90;85.20;;;;;;5107150;28;19912;-46
2021/04/02 02:13:57;;;;;;;;;;;26.80;84.60;;;;;;5107430;28;19915;-45
2021/04/02 02:16:24;;;;;;;;;;;26.90;83.90;;;;;;5089170;28;19908;-42
2021/04/02 02:18:52;;;;;;;;;;;26.90;83.50;;;;;;5107570;28;19912;-41
2021/04/02 02:21:19;;;;;;;;;;;26.90;83.70;;;;;;5089852;28;19919;-42
2021/04/02 02:23:45;;;;;;;;;;;26.90;83.40;;;;;;5107658;28;19939;-47
2021/04/02 02:26:12;;;;;;;;;;;26.90;83.80;;;;;;5088479;28;19931;-48
2021/04/02 02:28:38;;;;;;;;;;;26.90;83.70;;;;;;5106651;28;19950;-47
2021/04/02 02:31:08;;;;;;;;;;;26.90;83.60;;;;;;5106157;28;19912;-42
2021/04/02 02:33:34;;;;;;;;;;;26.90;83.30;;;;;;5105610;28;19916;-42
2021/04/02 02:36:01;;;;;;;;;;;26.90;83.50;;;;;;5085820;28;19904;-44
2021/04/02 02:38:27;;;;;;;;;;;26.90;83.30;;;;;;5106404;28;19912;-45
2021/04/02 02:40:54;;;;;;;;;;;26.90;82.90;;;;;;5106428;28;19945;-42
2021/04/02 02:43:20;;;;;;;;;;;26.90;82.80;;;;;;5106952;28;19908;-42
2021/04/02 02:45:47;;;;;;;;;;;26.90;82.40;;;;;;5105336;28;19908;-49
2021/04/02 02:48:13;;;;;;;;;;;26.90;82.20;;;;;;5106698;28;19987;-46
2021/04/02 02:50:45;;;;;;;;;;;26.90;81.90;;;;;;5106382;28;19946;-46
2021/04/02 02:53:14;;;;;;;;;;;26.90;82.10;;;;;;5106059;28;20303;-45
2021/04/02 02:55:41;;;;;;;;;;;26.90;82.10;;;;;;5105868;28;19919;-44
2021/04/02 02:58:08;;;;;;;;;;;26.90;81.90;;;;;;5106312;28;19912;-45
2021/04/02 03:00:39;;;;;;;;;;;26.90;81.90;;;;;;5106074;28;19900;-45
2021/04/02 03:03:07;;;;;;;;;;;26.90;81.70;;;;;;5106373;28;20013;-43
2021/04/02 03:05:34;;;;;;;;;;;26.90;81.50;;;;;;5106087;28;19968;-53
2021/04/02 03:08:01;;;;;;;;;;;26.90;81.20;;;;;;5105464;28;19908;-50
2021/04/02 03:10:27;;;;;;;;;;;26.90;81.00;;;;;;5087308;28;20131;-47
2021/04/02 03:12:55;;;;;;;;;;;26.90;81.10;;;;;;5106003;28;19920;-46
2021/04/02 03:15:22;;;;;;;;;;;26.90;80.90;;;;;;5106000;28;19906;-48
2021/04/02 03:17:57;;;;;;;;;;;26.90;80.90;;;;;;5106268;28;19952;-44
2021/04/02 03:20:25;;;;;;;;;;;26.90;80.50;;;;;;5088626;28;19904;-41
2021/04/02 03:22:52;;;;;;;;;;;26.90;80.30;;;;;;5106141;28;19908;-43
2021/04/02 03:25:19;;;;;;;;;;;26.90;80.30;;;;;;5088560;28;19973;-42
2021/04/02 03:27:46;;;;;;;;;;;26.90;80.20;;;;;;5106585;28;19908;-42
2021/04/02 03:30:14;;;;;;;;;;;26.90;79.90;;;;;;5106146;28;19938;-47
2021/04/02 03:32:41;;;;;;;;;;;26.90;80.10;;;;;;5106300;28;20206;-51
2021/04/02 03:35:09;;;;;;;;;;;26.90;80.50;;;;;;5106317;28;19922;-50
2021/04/02 03:37:36;;;;;;;;;;;26.90;80.40;;;;;;5105808;28;19987;-46
2021/04/02 03:40:05;;;;;;;;;;;26.90;80.00;;;;;;5106204;28;19903;-46
2021/04/02 03:42:33;;;;;;;;;;;26.90;80.10;;;;;;5106412;28;20238;-44
2021/04/02 03:45:00;;;;;;;;;;;26.90;80.20;;;;;;5105802;28;19900;-44
2021/04/02 03:47:27;;;;;;;;;;;26.90;79.90;;;;;;5106133;28;19907;-44
2021/04/02 03:49:54;;;;;;;;;;;26.80;79.80;;;;;;5105883;28;19900;-45
2021/04/02 03:52:30;;;;;;;;;;;26.80;80.10;;;;;;5105553;28;19908;-47
2021/04/02 03:54:59;;;;;;;;;;;26.80;80.20;;;;;;5105781;28;19930;-52
2021/04/02 03:57:26;;;;;;;;;;;26.80;80.00;;;;;;5105698;28;19912;-45
2021/04/02 03:59:53;;;;;;;;;;;26.80;80.10;;;;;;5105537;28;19900;-50
2021/04/02 04:02:19;;;;;;;;;;;26.80;80.10;;;;;;5105882;28;20088;-44
2021/04/02 04:04:46;;;;;;;;;;;26.80;79.90;;;;;;5105656;28;19911;-41
2021/04/02 04:07:12;;;;;;;;;;;26.80;80.20;;;;;;5105309;28;19926;-42
2021/04/02 04:09:40;;;;;;;;;;;26.80;80.60;;;;;;5105601;28;19904;-44
2021/04/02 04:12:07;;;;;;;;;;;26.80;80.40;;;;;;5105492;28;20144;-45
2021/04/02 04:14:34;;;;;;;;;;;26.80;80.40;;;;;;5105407;28;19942;-44
2021/04/02 04:17:00;;;;;;;;;;;26.80;80.90;;;;;;5105573;28;20232;-47
2021/04/02 04:19:28;;;;;;;;;;;26.80;80.20;;;;;;5105433;28;19906;-46
2021/04/02 04:21:55;;;;;;;;;;;26.80;80.00;;;;;;5104838;28;20252;-43
2021/04/02 04:24:21;;;;;;;;;;;26.80;80.20;;;;;;5104801;28;19900;-44
2021/04/02 04:26:49;;;;;;;;;;;26.80;80.30;;;;;;5105293;28;19900;-43
2021/04/02 04:29:19;;;;;;;;;;;26.80;79.80;;;;;;5105142;28;19931;-50
2021/04/02 04:31:46;;;;;;;;;;;26.80;79.90;;;;;;5105201;28;19907;-42
2021/04/02 04:34:13;;;;;;;;;;;26.80;80.20;;;;;;5105165;28;19900;-46
2021/04/02 04:36:41;;;;;;;;;;;26.70;79.60;;;;;;5104606;28;20136;-44
2021/04/02 04:39:08;;;;;;;;;;;26.70;79.40;;;;;;5087146;28;19927;-47
2021/04/02 04:41:34;;;;;;;;;;;26.70;79.50;;;;;;5104987;28;19931;-42
2021/04/02 04:44:02;;;;;;;;;;;26.70;79.10;;;;;;5104805;28;20238;-44
2021/04/02 04:46:28;;;;;;;;;;;26.70;79.20;;;;;;5104933;28;20181;-46
2021/04/02 04:48:54;;;;;;;;;;;26.70;79.20;;;;;;5104769;28;19915;-43
2021/04/02 04:51:20;;;;;;;;;;;26.70;79.00;;;;;;5104408;28;20242;-44
2021/04/02 04:53:51;;;;;;;;;;;26.70;78.90;;;;;;5105242;28;19950;-44
2021/04/02 04:56:18;;;;;;;;;;;26.70;79.00;;;;;;5104822;28;19899;-43
2021/04/02 04:58:47;;;;;;;;;;;26.80;79.10;;;;;;5104414;28;19912;-42
2021/04/02 05:01:13;;;;;;;;;;;26.70;78.70;;;;;;5104333;28;19901;-43
2021/04/02 05:03:40;;;;;;;;;;;26.70;78.80;;;;;;5104966;28;19908;-41
2021/04/02 05:06:07;;;;;;;;;;;26.70;78.90;;;;;;5104144;28;19900;-41
2021/04/02 05:08:41;;;;;;;;;;;26.70;79.10;;;;;;5104476;28;19915;-42
2021/04/02 05:11:12;;;;;;;;;;;26.70;79.10;;;;;;5104378;28;20211;-43
2021/04/02 05:13:39;;;;;;;;;;;26.70;79.20;;;;;;5104939;28;19977;-41
2021/04/02 05:16:05;;;;;;;;;;;26.70;79.00;;;;;;5104581;28;19900;-43
2021/04/02 05:18:33;;;;;;;;;;;26.70;79.30;;;;;;5104936;28;19912;-48
2021/04/02 05:20:59;;;;;;;;;;;26.70;79.20;;;;;;5104331;28;19900;-42
2021/04/02 05:23:26;;;;;;;;;;;26.70;79.10;;;;;;5104492;28;19988;-46
2021/04/02 05:25:52;;;;;;;;;;;26.70;79.40;;;;;;5104225;28;20227;-41
2021/04/02 05:28:18;;;;;;;;;;;26.60;79.50;;;;;;5104686;28;19908;-50
2021/04/02 05:30:45;;;;;;;;;;;26.60;79.70;;;;;;5104603;28;20181;-43
2021/04/02 05:33:13;;;;;;;;;;;26.60;79.90;;;;;;5104225;28;19945;-49
2021/04/02 05:35:39;;;;;;;;;;;26.60;80.40;;;;;;5104885;28;20225;-44
2021/04/02 05:38:05;;;;;;;;;;;26.60;80.50;;;;;;5109095;28;19911;-48
2021/04/02 05:40:31;;;;;;;;;;;26.60;80.90;;;;;;5108826;28;19976;-43
2021/04/02 05:43:21;;;;;;;;;;;26.60;80.60;;;;;;5108941;28;19979;-43
2021/04/02 05:45:48;;;;;;;;;;;26.60;80.50;;;;;;5108743;28;20180;-46
2021/04/02 05:48:15;;;;;;;;;;;26.60;80.10;;;;;;5108947;28;19915;-48
2021/04/02 05:50:42;;;;;;;;;;;26.60;79.80;;;;;;5108743;28;19907;-42
2021/04/02 05:53:12;;;;;;;;;;;26.60;79.90;;;;;;5108608;28;19914;-43
2021/04/02 05:55:42;;;;;;;;;;;26.60;80.10;;;;;;5108445;28;19900;-46
2021/04/02 05:58:09;;;;;;;;;;;26.60;79.90;;;;;;5108839;28;19919;-44
2021/04/02 06:00:36;;;;;;;;;;;26.60;79.80;;;;;;5108555;28;20055;-43
2021/04/02 06:03:04;;;;;;;;;;;26.60;79.60;;;;;;5108617;28;20152;-48
2021/04/02 06:05:30;;;;;;;;;;;26.60;79.30;;;;;;5108453;28;20184;-41
2021/04/02 06:07:57;;;;;;;;;;;26.60;79.30;;;;;;5108621;28;19982;-49
2021/04/02 06:10:23;;;;;;;;;;;26.60;79.50;;;;;;5108041;28;20257;-46
2021/04/02 06:12:50;;;;;;;;;;;26.60;79.10;;;;;;5108555;28;19953;-41
2021/04/02 06:15:18;;;;;;;;;;;26.60;79.40;;;;;;5108108;28;19972;-41
2021/04/02 06:17:58;;;;;;;;;;;26.60;79.30;;;;;;5108126;28;19934;-41
2021/04/02 06:20:28;;;;;;;;;;;26.60;79.10;;;;;;5108036;28;20125;-43
2021/04/02 06:23:11;;;;;;;;;;;26.60;78.80;;;;;;5108228;28;20176;-41
2021/04/02 06:25:39;;;;;;;;;;;26.60;79.20;;;;;;5107916;28;19900;-43
2021/04/02 06:28:12;;;;;;;;;;;26.60;79.50;;;;;;5108163;28;19915;-42
2021/04/02 06:30:39;;;;;;;;;;;26.60;79.40;;;;;;5107909;28;19900;-42
2021/04/02 06:33:09;;;;;;;;;;;26.60;79.30;;;;;;5108229;28;19915;-42
2021/04/02 06:35:36;;;;;;;;;;;26.60;79.90;;;;;;5107726;28;19904;-48
2021/04/02 06:38:02;;;;;;;;;;;26.60;79.20;;;;;;5107918;28;20130;-44
2021/04/02 06:40:29;;;;;;;;;;;26.60;79.30;;;;;;5107801;28;19903;-43
2021/04/02 06:42:57;;;;;;;;;;;26.50;79.20;;;;;;5089635;28;19969;-48
2021/04/02 06:45:24;;;;;;;;;;;26.60;78.90;;;;;;5107612;28;19945;-42
2021/04/02 06:47:50;;;;;;;;;;;26.60;79.20;;;;;;5107087;28;19915;-42
2021/04/02 06:50:19;;;;;;;;;;;26.60;79.10;;;;;;5107309;28;19946;-50
2021/04/02 06:52:49;;;;;;;;;;;26.60;79.30;;;;;;5107813;28;19912;-47
2021/04/02 06:55:16;;;;;;;;;;;26.60;79.50;;;;;;5107357;28;19907;-41
2021/04/02 06:57:47;;;;;;;;;;;26.60;79.90;;;;;;5107405;28;20206;-42
2021/04/02 07:00:16;;;;;;;;;;;26.60;79.40;;;;;;5107451;28;20233;-41
2021/04/02 07:02:44;;;;;;;;;;;26.60;79.40;;;;;;5107462;28;19999;-41
2021/04/02 07:05:11;;;;;;;;;;;26.50;80.00;;;;;;5107131;28;20148;-41
2021/04/02 07:07:38;;;;;;;;;;;26.50;80.60;;;;;;5107490;28;20227;-43
2021/04/02 07:10:05;;;;;;;;;;;26.50;80.30;;;;;;5107132;28;19900;-42
2021/04/02 07:12:32;;;;;;;;;;;26.50;79.90;;;;;;5107016;28;20197;-45
2021/04/02 07:14:59;;;;;;;;;;;26.50;80.00;;;;;;5106985;28;19907;-43
2021/04/02 07:17:25;;;;;;;;;;;26.50;81.30;;;;;;5106839;28;20142;-43
2021/04/02 07:19:52;;;;;;;;;;;26.50;80.60;;;;;;5106824;28;19900;-41
2021/04/02 07:22:18;;;;;;;;;;;26.50;80.70;;;;;;5107168;28;20052;-41
2021/04/02 07:24:45;;;;;;;;;;;26.40;81.00;;;;;;5106849;28;19943;-41
2021/04/02 07:27:11;;;;;;;;;;;26.40;81.10;;;;;;5106863;28;20124;-40
2021/04/02 07:29:37;;;;;;;;;;;26.40;81.00;;;;;;5106797;28;19940;-44
2021/04/02 07:32:05;;;;;;;;;;;26.40;82.20;;;;;;5106790;28;19912;-41
2021/04/02 07:34:32;;;;;;;;;;;26.40;82.90;;;;;;5106578;28;19907;-44
2021/04/02 07:36:59;;;;;;;;;;;26.40;83.90;;;;;;5106306;28;20150;-55
2021/04/02 07:39:29;;;;;;;;;;;26.40;83.80;;;;;;5106657;28;20215;-44
2021/04/02 07:41:56;;;;;;;;;;;26.40;84.10;;;;;;5106492;28;19969;-44
2021/04/02 07:44:22;;;;;;;;;;;26.40;83.70;;;;;;5106355;28;19900;-42
2021/04/02 07:47:02;;;;;;;;;;;26.30;84.00;;;;;;5106352;28;20007;-42
2021/04/02 07:49:31;;;;;;;;;;;26.30;84.70;;;;;;5106556;28;20187;-43
2021/04/02 07:51:58;;;;;;;;;;;26.30;85.10;;;;;;5106400;28;19907;-42
2021/04/02 07:54:32;;;;;;;;;;;26.20;85.50;;;;;;5106076;28;19900;-42
2021/04/02 07:57:03;;;;;;;;;;;26.20;85.10;;;;;;5106212;28;19908;-47
2021/04/02 07:59:36;;;;;;;;;;;26.20;83.30;;;;;;5105260;28;19899;-42
2021/04/02 08:02:04;;;;;;;;;;;26.20;84.00;;;;;;5088032;28;20105;-42
2021/04/02 08:04:42;;;;;;;;;;;26.20;84.80;;;;;;5106022;28;19944;-41
2021/04/02 08:07:15;;;;;;;;;;;26.20;85.10;;;;;;5106036;28;20096;-42
2021/04/02 08:09:51;;;;;;;;;;;26.20;85.60;;;;;;5106034;28;19922;-43
2021/04/02 08:12:17;;;;;;;;;;;26.20;85.30;;;;;;5105872;28;19916;-43
2021/04/02 08:14:50;;;;;;;;;;;26.20;85.40;;;;;;5105987;28;19963;-43
2021/04/02 08:17:28;;;;;;;;;;;26.20;85.30;;;;;;5105783;28;20241;-42
2021/04/02 08:20:02;;;;;;;;;;;26.20;85.40;;;;;;5105699;28;20188;-44
2021/04/02 08:22:29;;;;;;;;;;;26.10;85.80;;;;;;5105649;28;19907;-41
2021/04/02 08:24:55;;;;;;;;;;;26.10;85.90;;;;;;5105620;28;19903;-45
2021/04/02 08:27:21;;;;;;;;;;;26.10;85.70;;;;;;5105943;28;19919;-44
2021/04/02 08:30:01;;;;;;;;;;;26.10;85.80;;;;;;5105544;28;19904;-47
2021/04/02 08:32:27;;;;;;;;;;;26.10;85.50;;;;;;5105722;28;20039;-43
2021/04/02 08:34:53;;;;;;;;;;;26.10;85.40;;;;;;5105433;28;19904;-42
2021/04/02 08:37:20;;;;;;;;;;;26.10;85.30;;;;;;5105476;28;19915;-41
2021/04/02 08:39:46;;;;;;;;;;;26.10;85.20;;;;;;5105283;28;19935;-43
2021/04/02 08:42:13;;;;;;;;;;;26.10;85.30;;;;;;5105482;28;20185;-45
2021/04/02 08:44:40;;;;;;;;;;;26.10;85.40;;;;;;5105237;28;19904;-47
2021/04/02 08:47:07;;;;;;;;;;;26.10;85.30;;;;;;5105539;28;20093;-40
2021/04/02 08:49:39;;;;;;;;;;;26.10;85.60;;;;;;5105366;28;19972;-41
2021/04/02 08:52:07;;;;;;;;;;;26.10;85.50;;;;;;5105296;28;19936;-41
2021/04/02 08:54:33;;;;;;;;;;;26.10;85.00;;;;;;5104982;28;19904;-41
2021/04/02 08:56:59;;;;;;;;;;;26.10;84.90;;;;;;5105176;28;19911;-40
2021/04/02 08:59:25;;;;;;;;;;;26.00;84.80;;;;;;5105087;28;19942;-50
2021/04/02 09:01:52;;;;;;;;;;;26.10;84.90;;;;;;5104856;28;19904;-46
2021/04/02 09:04:20;;;;;;;;;;;26.00;84.90;;;;;;5105017;28;19940;-45
2021/04/02 09:06:46;;;;;;;;;;;26.10;84.90;;;;;;5104564;28;19906;-44
2021/04/02 09:09:22;;;;;;;;;;;26.00;84.70;;;;;;5104513;28;19903;-45
2021/04/02 09:11:50;;;;;;;;;;;26.00;84.90;;;;;;5104271;28;19986;-50
2021/04/02 09:14:16;;;;;;;;;;;26.00;85.00;;;;;;5104368;28;19899;-50
2021/04/02 09:16:45;;;;;;;;;;;26.00;85.10;;;;;;5104331;28;19900;-50
2021/04/02 09:19:12;;;;;;;;;;;26.00;85.10;;;;;;5104470;28;19900;-43
2021/04/02 09:21:38;;;;;;;;;;;26.00;85.00;;;;;;5104392;28;19977;-46
2021/04/02 09:24:05;;;;;;;;;;;26.00;85.20;;;;;;5104205;28;20100;-43
2021/04/02 09:26:35;;;;;;;;;;;26.00;85.30;;;;;;5104242;28;19907;-51
2021/04/02 09:29:01;;;;;;;;;;;26.00;85.40;;;;;;5104444;28;19900;-43
2021/04/02 09:31:35;;;;;;;;;;;25.90;85.80;;;;;;5104171;28;19900;-48
2021/04/02 09:34:08;;;;;;;;;;;25.90;85.90;;;;;;5104244;28;20227;-47
2021/04/02 09:36:35;;;;;;;;;;;25.90;86.00;;;;;;5104173;28;19900;-44
2021/04/02 09:39:15;;;;;;;;;;;25.90;86.40;;;;;;5104227;28;20193;-46
2021/04/02 09:41:42;;;;;;;;;;;25.80;86.20;;;;;;5104367;28;19923;-43
2021/04/02 09:44:10;;;;;;;;;;;25.80;86.40;;;;;;5104261;28;19900;-44
2021/04/02 09:46:37;;;;;;;;;;;25.80;86.60;;;;;;5103284;28;19900;-46
2021/04/02 09:49:08;;;;;;;;;;;25.80;86.90;;;;;;5104166;28;19900;-41
2021/04/02 09:51:35;;;;;;;;;;;25.80;87.40;;;;;;5104238;28;19907;-46
2021/04/02 09:54:02;;;;;;;;;;;25.70;87.90;;;;;;5104388;28;19908;-43
2021/04/02 09:56:28;;;;;;;;;;;25.70;88.30;;;;;;5104023;28;20188;-44
2021/04/02 09:58:54;;;;;;;;;;;25.60;88.80;;;;;;5104198;28;19947;-50
2021/04/02 10:01:21;;;;;;;;;;;25.60;89.60;;;;;;5103976;28;20104;-52
2021/04/02 10:03:48;;;;;;;;;;;25.60;90.00;;;;;;5104520;28;19904;-52
2021/04/02 10:06:14;;;;;;;;;;;25.50;90.20;;;;;;5103909;28;19904;-47
2021/04/02 10:08:40;;;;;;;;;;;25.40;90.30;;;;;;5104013;28;19904;-50
2021/04/02 10:11:06;;;;;;;;;;;25.40;90.60;;;;;;5101912;28;19953;-53
2021/04/02 10:13:32;;;;;;;;;;;25.40;90.60;;;;;;5104350;28;19908;-55
2021/04/02 10:15:59;;;;;;;;;;;25.30;90.60;;;;;;5104127;28;19904;-47
2021/04/02 10:18:27;;;;;;;;;;;25.30;90.50;;;;;;5104181;28;19908;-53
2021/04/02 10:20:53;;;;;;;;;;;25.30;90.70;;;;;;5103767;28;20100;-42
2021/04/02 10:23:20;;;;;;;;;;;25.30;90.70;;;;;;5107129;28;20165;-43
2021/04/02 10:25:46;;;;;;;;;;;25.30;90.80;;;;;;5107485;28;19904;-45
2021/04/02 10:28:12;;;;;;;;;;;25.30;90.70;;;;;;5089530;28;20204;-43
2021/04/02 10:30:38;;;;;;;;;;;25.30;90.80;;;;;;5089654;28;19908;-44
2021/04/02 10:33:05;;;;;;;;;;;25.20;90.70;;;;;;5107846;28;19904;-42
2021/04/02 10:35:33;;;;;;;;;;;25.20;90.70;;;;;;5107411;28;19904;-43
2021/04/02 10:37:59;;;;;;;;;;;25.20;90.70;;;;;;5107519;28;19908;-44
2021/04/02 10:40:25;;;;;;;;;;;25.20;90.80;;;;;;5107261;28;20104;-44
2021/04/02 10:42:52;;;;;;;;;;;25.10;90.90;;;;;;5107382;28;19908;-47
2021/04/02 10:45:18;;;;;;;;;;;25.10;90.90;;;;;;5107405;28;19925;-43
2021/04/02 10:47:45;;;;;;;14.43;5.32;;;25.10;90.90;;;;;;5107314;28;19974;-45
2021/04/02 10:50:11;;;;;;;;;;;25.10;90.90;;;;;;5106929;28;20019;-43
2021/04/02 10:52:38;;;;;;;;;;;25.10;90.90;;;;;;5107506;28;19904;-47
2021/04/02 10:55:05;;;;;;;;;;;25.10;90.90;;;;;;5107086;28;19904;-43
2021/04/02 10:57:31;;;;;;;;;;;25.00;90.80;;;;;;5107072;28;19915;-44
2021/04/02 10:59:57;;;;;;;;;;;25.00;90.80;;;;;;5107054;28;19987;-47
2021/04/02 11:02:23;;;;;;;;;;;24.90;90.80;;;;;;5107101;28;19911;-48
2021/04/02 11:04:49;;;;;;;;;;;25.00;90.70;;;;;;5106864;28;19961;-46
2021/04/02 11:07:16;;;;;;;;;;;24.90;90.80;;;;;;5106912;28;19904;-48
2021/04/02 11:09:43;;;;;;;;;;;24.90;90.70;;;;;;5106890;28;19911;-45
2021/04/02 11:12:09;;;;;;;;;;;25.00;90.70;;;;;;5106777;28;19916;-47
2021/04/02 11:14:35;;;;;;;;;;;25.00;90.70;;;;;;5106616;28;19904;-46
2021/04/02 11:17:01;;;;;;;;;;;24.90;90.60;;;;;;5106538;28;19908;-49
2021/04/02 11:19:28;;;;;;;;;;;24.90;90.50;;;;;;5106723;28;19900;-50
2021/04/02 11:21:54;;;;;;;;;;;24.90;90.40;;;;;;5106323;28;19915;-42
2021/04/02 11:24:20;;;;;;;;;;;25.00;90.40;;;;;;5106640;28;19900;-41
2021/04/02 11:26:46;;;;;;;;;;;24.90;90.20;;;;;;5106446;28;19946;-45
2021/04/02 11:29:12;;;;;;;;;;;24.90;90.00;;;;;;5106290;28;19900;-44
2021/04/02 11:31:39;;;;;;;;;;;24.90;89.90;;;;;;5106236;28;19900;-44
2021/04/02 11:34:05;;;;;;;;;;;24.90;90.00;;;;;;5106178;28;19972;-43
2021/04/02 11:36:31;;;;;;;;;;;25.00;90.00;;;;;;5106109;28;19900;-40
2021/04/02 11:38:57;;;;;;;;;;;25.00;90.00;;;;;;5106231;28;19980;-41
2021/04/02 11:41:23;;;;;;;;;;;25.00;90.10;;;;;;5106148;28;19907;-43
2021/04/02 11:43:50;;;;;;;;;;;25.00;90.20;;;;;;5106567;28;19908;-49
2021/04/02 11:46:17;;;;;;;;;;;25.00;90.30;;;;;;5106304;28;19900;-46
2021/04/02 11:48:44;;;;;;;;;;;25.00;90.40;;;;;;5106395;28;19953;-47
2021/04/02 11:51:10;;;;;;;;;;;25.00;90.60;;;;;;5106017;28;19900;-43
2021/04/02 11:53:37;;;;;;;;;;;25.00;90.30;;;;;;5105812;28;19939;-45
2021/04/02 11:56:03;;;;;;;;;;;25.00;90.30;;;;;;5105800;28;20129;-42
2021/04/02 11:58:29;;;;;;;;;;;25.00;90.30;;;;;;5106036;28;19912;-39
2021/04/02 12:00:56;;;;;;;;;;;25.00;90.40;;;;;;5105449;28;19899;-44
2021/04/02 12:03:22;;;;;;;;;;;25.00;90.30;;;;;;5106013;28;20121;-52
2021/04/02 12:05:48;;;;;;;;;;;25.00;90.30;;;;;;5105707;28;19907;-47
2021/04/02 12:08:14;;;;;;;;;;;25.00;90.30;;;;;;5105854;28;19915;-50
2021/04/02 12:10:40;;;;;;;;;;;25.10;90.20;;;;;;5105607;28;19900;-43
2021/04/02 12:13:06;;;;;;;;;;;25.10;90.20;;;;;;5105986;28;19912;-44
2021/04/02 12:15:33;;;;;;;;;;;25.10;90.20;;;;;;5105560;28;19900;-44
2021/04/02 12:17:59;;;;;;;;;;;25.10;90.20;;;;;;5105789;28;19917;-44
2021/04/02 12:20:25;;;;;;;;;;;25.10;90.30;;;;;;5105393;28;19900;-43
2021/04/02 12:22:51;;;;;;;;;;;25.20;90.20;;;;;;5105577;28;19908;-46
2021/04/02 12:25:18;;;;;;;;;;;25.20;90.40;;;;;;5105497;28;19900;-48
2021/04/02 12:27:44;;;;;;;;;;;25.20;90.20;;;;;;5105606;28;19908;-43
2021/04/02 12:30:12;;;;;;;;;;;25.20;90.40;;;;;;5105239;28;19944;-43
2021/04/02 12:32:39;;;;;;;;;;;25.20;90.20;;;;;;5105431;28;19908;-42
2021/04/02 12:35:05;;;;;;;;;;;25.20;90.20;;;;;;5105192;28;19946;-43
2021/04/02 12:37:31;;;;;;;;;;;25.20;90.20;;;;;;5104984;28;19949;-48
2021/04/02 12:39:59;;;;;;;;;;;25.30;90.20;;;;;;5104980;28;20238;-42
2021/04/02 12:42:28;;;;;;;;;;;25.30;90.30;;;;;;5105069;28;19916;-48
2021/04/02 12:44:54;;;;;;;;;;;25.30;90.30;;;;;;5104489;28;19900;-47
2021/04/02 12:47:21;;;;;;;;;;;25.30;90.30;;;;;;5105084;28;20092;-48
2021/04/02 12:49:47;;;;;;;;;;;25.30;90.30;;;;;;5105044;28;19910;-48
2021/04/02 12:52:14;;;;;;;;;;;25.30;90.30;;;;;;5105016;28;19971;-49
2021/04/02 12:54:40;;;;;;;;;;;25.30;90.30;;;;;;5104793;28;19908;-47
2021/04/02 12:57:07;;;;;;;;;;;25.30;90.40;;;;;;5104776;28;19930;-59
2021/04/02 12:59:33;;;;;;;;;;;25.30;90.40;;;;;;5104814;28;19900;-48
2021/04/02 13:01:59;;;;;;;;;;;25.40;90.40;;;;;;5104738;28;19908;-41
2021/04/02 13:04:26;;;;;;;;;;;25.30;90.40;;;;;;5104749;28;19907;-44
2021/04/02 13:06:52;;;;;;;;;;;25.40;90.40;;;;;;5104742;28;19908;-51
2021/04/02 13:09:18;;;;;;;;;;;25.40;90.40;;;;;;5104612;28;19900;-49
2021/04/02 13:11:44;;;;;;;;;;;25.40;90.40;;;;;;5104504;28;19919;-52
2021/04/02 13:14:10;;;;;;;;;;;25.50;90.50;;;;;;5104588;28;19904;-43
2021/04/02 13:16:37;;;;;;;;;;;25.50;90.40;;;;;;5104435;28;19997;-44
2021/04/02 13:19:06;;;;;;;;;;;25.50;90.40;;;;;;5104342;28;19908;-46
2021/04/02 13:21:33;;;;;;;;;;;25.50;90.30;;;;;;5104720;28;19900;-42
2021/04/02 13:24:00;;;;;;;;;;;25.50;90.30;;;;;;5104390;28;19904;-43
2021/04/02 13:26:26;;;;;;;;;;;25.50;90.20;;;;;;5104482;28;20171;-50
2021/04/02 13:28:52;;;;;;;;;;;25.50;90.30;;;;;;5104791;28;20248;-48
2021/04/02 13:31:18;;;;;;;;;;;25.60;90.50;;;;;;5104278;28;20212;-43
2021/04/02 13:33:44;;;;;;;;;;;25.60;90.40;;;;;;5104865;28;19977;-43
2021/04/02 13:36:17;;;;;;;;;;;25.60;90.50;;;;;;5104403;28;19904;-44
2021/04/02 13:38:43;;;;;;;;;;;25.60;90.30;;;;;;5104474;28;19915;-47
2021/04/02 13:41:09;;;;;;;;;;;25.60;90.30;;;;;;5104477;28;19911;-42
2021/04/02 13:43:35;;;;;;;;;;;25.60;90.30;;;;;;5104710;28;19938;-44
2021/04/02 13:46:01;;;;;;;;;;;25.60;90.30;;;;;;5104158;28;19904;-49
2021/04/02 13:48:27;;;;;;;;;;;25.70;90.40;;;;;;5104729;28;20069;-48
2021/04/02 13:50:54;;;;;;;;;;;25.70;90.40;;;;;;5104230;28;19904;-45
2021/04/02 13:53:20;;;;;;;;;;;25.70;90.40;;;;;;5104335;28;19904;-41
2021/04/02 13:55:46;;;;;;;;;;;25.80;90.60;;;;;;5104113;28;19911;-44
2021/04/02 13:58:12;;;;;;;;;;;25.70;90.60;;;;;;5107253;28;19974;-41
2021/04/02 14:00:39;;;;;;;;;;;25.80;90.70;;;;;;5108149;28;20269;-48
2021/04/02 14:03:06;;;;;;;;;;;25.80;90.60;;;;;;5108437;28;19919;-44
2021/04/02 14:05:32;;;;;;;;;;;25.80;90.60;;;;;;5108029;28;19911;-45
2021/04/02 14:07:58;;;;;;;;;;;25.80;90.50;;;;;;5108330;28;19904;-44
2021/04/02 14:10:29;;;;;;;;;;;25.80;90.60;;;;;;5107806;28;20197;-44
2021/04/02 14:12:56;;;;;;;;;;;25.80;90.90;;;;;;5108152;28;19916;-44
2021/04/02 14:15:24;;;;;;;;;;;25.80;90.90;;;;;;5107897;28;20206;-45
2021/04/02 14:17:50;;;;;;;;;;;25.80;90.70;;;;;;5107888;28;19915;-44
2021/04/02 14:20:27;;;;;;;;;;;25.90;90.90;;;;;;5107936;28;19904;-45